Time;durP1;ratioP1;P1;durP2;ratioP2;P2;SDS_P1;SDS_P2;PMS_P1;PMS_P2;Temp;Humidity;BMP_temperature;BMP_pressure;BME280_temperature;BME280_humidity;BME280_pressure;Samples;Min_cycle;Max_cycle;Signal;HPM_P1;HPM_P2
2022/12/08 00:01:38;;;;;;;8.07;3.90;;;-3.30;99.90;;;;;;4165429;28;20177;-68
2022/12/08 00:03:40;;;;;;;7.27;3.47;;;-3.20;99.90;;;;;;4147187;28;20238;-67
2022/12/08 00:10:44;;;;;;;5.50;3.37;;;-3.20;99.90;;;;;;4144377;28;20443;-66
2022/12/08 00:12:44;;;;;;;5.93;3.23;;;-3.20;99.90;;;;;;4164206;28;20545;-66
2022/12/08 00:14:48;;;;;;;5.17;2.90;;;-3.20;99.90;;;;;;4164972;28;20912;-66
2022/12/08 00:16:49;;;;;;;5.53;3.07;;;-3.20;99.90;;;;;;4165026;28;20213;-66
2022/12/08 00:18:49;;;;;;;4.03;2.80;;;-3.20;99.90;;;;;;4165022;28;20434;-67
2022/12/08 00:20:56;;;;;;;6.07;3.40;;;-3.30;99.90;;;;;;4164962;28;20212;-66
2022/12/08 00:22:56;;;;;;;4.53;2.90;;;-3.30;99.90;;;;;;4130281;28;20247;-68
2022/12/08 00:24:57;;;;;;;8.03;3.60;;;-3.40;99.90;;;;;;4164810;28;20436;-67
2022/12/08 00:26:58;;;;;;;5.57;2.93;;;-3.30;99.90;;;;;;4164995;28;20207;-67
2022/12/08 00:28:58;;;;;;;6.13;3.80;;;-3.20;99.90;;;;;;4146990;28;20340;-66
2022/12/08 00:31:06;;;;;;;6.97;3.57;;;-3.30;99.90;;;;;;4147320;28;20190;-67
2022/12/08 00:33:07;;;;;;;5.53;3.43;;;-3.30;99.90;;;;;;4146626;28;20230;-66
2022/12/08 00:35:08;;;;;;;7.27;3.67;;;-3.40;99.90;;;;;;4146960;28;20980;-67
2022/12/08 00:37:08;;;;;;;7.27;3.60;;;-3.40;99.90;;;;;;4147459;28;20191;-67
2022/12/08 00:39:11;;;;;;;6.13;3.63;;;-3.50;99.90;;;;;;4168003;28;20187;-67
2022/12/08 00:42:10;;;;;;;7.63;3.80;;;-3.50;99.90;;;;;;4148227;28;20189;-67
2022/12/08 00:43:39;;;;;;;6.43;3.57;;;-3.50;99.90;;;;;;4148953;28;20457;-67
2022/12/08 00:45:40;;;;;;;6.67;3.60;;;-3.50;99.90;;;;;;4147085;28;20477;-67
2022/12/08 00:47:41;;;;;;;5.30;2.73;;;-3.50;99.90;;;;;;4164560;28;20198;-67
2022/12/08 00:49:41;;;;;;;4.23;2.77;;;-3.50;99.90;;;;;;4146917;28;20221;-67
2022/12/08 00:51:42;;;;;;;5.00;3.10;;;-3.50;99.90;;;;;;4164582;28;20211;-67
2022/12/08 00:53:43;;;;;;;6.13;2.70;;;-3.40;99.90;;;;;;4164051;28;20207;-67
2022/12/08 00:55:44;;;;;;;4.67;2.80;;;-3.40;99.90;;;;;;4164256;28;20461;-66
2022/12/08 00:57:44;;;;;;;4.57;2.73;;;-3.40;99.90;;;;;;4164284;28;20268;-66
2022/12/08 00:59:45;;;;;;;4.67;3.00;;;-3.40;99.90;;;;;;4164332;28;20185;-67
2022/12/08 01:01:47;;;;;;;4.90;3.20;;;-3.50;99.90;;;;;;4164191;28;20240;-66
2022/12/08 01:03:48;;;;;;;5.33;3.20;;;-3.50;99.90;;;;;;4163607;28;20789;-66
2022/12/08 01:05:48;;;;;;;9.33;4.40;;;-3.40;99.90;;;;;;4130161;28;20434;-66
2022/12/08 01:07:49;;;;;;;9.73;5.07;;;-3.50;99.90;;;;;;4164284;28;20417;-67
2022/12/08 01:09:50;;;;;;;9.03;4.90;;;-3.60;99.90;;;;;;4146850;28;20269;-66
2022/12/08 01:11:50;;;;;;;6.57;4.00;;;-3.60;99.90;;;;;;4164030;28;20205;-67
2022/12/08 01:13:51;;;;;;;4.77;2.87;;;-3.60;99.90;;;;;;4145357;28;20737;-66
2022/12/08 01:15:51;;;;;;;6.53;3.17;;;-3.60;99.90;;;;;;4146383;28;20257;-66
2022/12/08 01:17:52;;;;;;;4.90;2.70;;;-3.60;99.90;;;;;;4164172;28;20182;-66
2022/12/08 01:19:53;;;;;;;5.53;2.87;;;-3.60;99.90;;;;;;4164387;28;20182;-67
2022/12/08 01:21:53;;;;;;;4.30;2.77;;;-3.50;99.90;;;;;;4146580;28;20225;-67
2022/12/08 01:23:54;;;;;;;4.27;2.60;;;-3.50;99.90;;;;;;4163520;28;20518;-66
2022/12/08 01:26:00;;;;;;;5.93;3.30;;;-3.60;99.90;;;;;;4164143;28;20192;-67
2022/12/08 01:28:01;;;;;;;5.47;3.03;;;-3.70;99.90;;;;;;4146477;28;20455;-67
2022/12/08 01:30:03;;;;;;;6.00;3.17;;;-3.60;99.90;;;;;;4163751;28;20437;-66
2022/12/08 01:32:03;;;;;;;6.20;3.87;;;-3.70;99.90;;;;;;4163866;28;20277;-66
2022/12/08 01:34:05;;;;;;;6.47;3.50;;;-3.70;99.90;;;;;;4145905;28;20445;-67
2022/12/08 01:36:08;;;;;;;5.83;2.93;;;-3.70;99.90;;;;;;4163913;28;20603;-67
2022/12/08 01:38:09;;;;;;;4.80;2.50;;;-3.80;99.90;;;;;;4146118;28;20443;-67
2022/12/08 01:40:09;;;;;;;5.73;2.90;;;-3.80;99.90;;;;;;4163728;28;20425;-67
2022/12/08 01:42:22;;;;;;;5.33;2.57;;;-3.90;99.90;;;;;;4145565;28;20271;-67
2022/12/08 01:44:22;;;;;;;4.43;2.63;;;-3.90;99.90;;;;;;4146111;28;20288;-67
2022/12/08 01:46:24;;;;;;;4.33;2.53;;;-3.90;99.90;;;;;;4145801;28;20464;-67
2022/12/08 01:48:26;;;;;;;3.67;2.30;;;-4.00;99.90;;;;;;4143328;28;20186;-67
2022/12/08 01:50:28;;;;;;;4.90;2.53;;;-4.00;99.90;;;;;;4162422;28;20448;-67
2022/12/08 01:52:40;;;;;;;4.50;2.43;;;-4.00;99.90;;;;;;4145268;28;20477;-67
2022/12/08 01:54:57;;;;;;;3.43;2.33;;;-4.00;99.90;;;;;;4145703;28;20414;-66
2022/12/08 01:57:07;;;;;;;4.00;2.27;;;-4.00;99.90;;;;;;4145710;28;20499;-67
2022/12/08 01:59:09;;;;;;;4.30;2.70;;;-4.00;99.90;;;;;;4145680;28;21012;-67
2022/12/08 02:01:10;;;;;;;2.53;2.20;;;-4.00;99.90;;;;;;4145807;28;21008;-66
2022/12/08 02:03:19;;;;;;;6.13;2.70;;;-4.00;99.90;;;;;;4163112;28;20464;-67
2022/12/08 02:05:27;;;;;;;4.53;2.33;;;-4.00;99.90;;;;;;4145580;28;20531;-67
2022/12/08 02:07:28;;;;;;;6.37;3.47;;;-4.10;99.90;;;;;;4129270;28;20440;-67
2022/12/08 02:09:28;;;;;;;4.77;2.77;;;-4.10;99.90;;;;;;4145406;28;20469;-67
2022/12/08 02:11:29;;;;;;;9.70;4.33;;;-4.10;99.90;;;;;;4162965;28;20899;-67
2022/12/08 02:13:31;;;;;;;5.60;3.30;;;-4.10;99.90;;;;;;4162084;28;20220;-67
2022/12/08 02:16:00;;;;;;;5.57;2.83;;;-4.10;99.90;;;;;;4163377;28;20235;-67
2022/12/08 02:18:42;;;;;;;5.77;2.63;;;-4.10;99.90;;;;;;4145337;28;20450;-67
2022/12/08 02:21:08;;;;;;;3.70;2.57;;;-4.10;99.90;;;;;;4145422;28;20433;-67
2022/12/08 02:23:24;;;;;;;2.93;2.10;;;-4.00;99.90;;;;;;4161474;28;20530;-67
2022/12/08 02:25:43;;;;;;;3.33;2.50;;;-4.10;99.90;;;;;;4145630;28;20439;-67
2022/12/08 02:28:33;;;;;;;4.33;2.50;;;-4.10;99.90;;;;;;4162880;28;20458;-67
2022/12/08 02:31:04;;;;;;;3.47;2.40;;;-4.20;99.90;;;;;;4145505;28;20432;-67
2022/12/08 02:33:43;;;;;;;2.27;1.87;;;-4.30;99.90;;;;;;4144569;28;20495;-67
2022/12/08 02:36:06;;;;;;;3.03;2.03;;;-4.30;99.90;;;;;;4145393;28;20490;-67
2022/12/08 02:38:55;;;;;;;4.40;2.40;;;-4.10;99.90;;;;;;4145758;28;20442;-67
2022/12/08 02:41:26;;;;;;;3.77;2.50;;;-4.00;99.90;;;;;;4148668;28;20428;-67
2022/12/08 02:43:36;;;;;;;4.50;2.30;;;-4.00;99.90;;;;;;4145103;28;20493;-65
2022/12/08 02:45:57;;;;;;;3.77;2.23;;;-3.90;99.90;;;;;;4145663;28;21116;-65
2022/12/08 02:47:59;;;;;;;3.20;2.23;;;-3.90;99.90;;;;;;4145387;28;20431;-65
2022/12/08 02:50:00;;;;;;;2.93;2.03;;;-3.90;99.90;;;;;;4145576;28;20462;-65
2022/12/08 02:52:26;;;;;;;3.17;2.10;;;-3.80;99.90;;;;;;4145032;28;20476;-65
2022/12/08 02:54:26;;;;;;;7.07;2.90;;;-3.90;99.90;;;;;;4145175;28;20277;-65
2022/12/08 02:57:11;;;;;;;4.03;2.20;;;-3.80;99.90;;;;;;4162727;28;20850;-65
2022/12/08 02:59:34;;;;;;;3.67;2.00;;;-3.90;99.90;;;;;;4162693;28;20638;-65
2022/12/08 03:02:28;;;;;;;4.10;2.40;;;-3.80;99.90;;;;;;4145038;28;20574;-65
2022/12/08 03:04:46;;;;;;;3.70;2.10;;;-3.70;99.90;;;;;;4143656;28;20441;-65
2022/12/08 03:07:27;;;;;;;3.77;2.27;;;-3.70;99.90;;;;;;4144932;28;20920;-65
2022/12/08 03:09:31;;;;;;;3.80;2.20;;;-3.60;99.90;;;;;;4144752;28;20424;-65
2022/12/08 03:11:53;;;;;;;2.83;2.03;;;-3.50;99.90;;;;;;4162532;28;20437;-66
2022/12/08 03:13:59;;;;;;;4.03;2.33;;;-3.30;99.90;;;;;;4144281;28;20572;-65
2022/12/08 03:16:03;;;;;;;2.70;1.47;;;-3.30;99.90;;;;;;4139273;28;20457;-65
2022/12/08 03:18:07;;;;;;;4.60;2.23;;;-3.20;99.90;;;;;;4144534;28;20434;-66
2022/12/08 03:20:12;;;;;;;4.90;2.60;;;-3.10;99.90;;;;;;4144728;28;20528;-65
2022/12/08 03:22:17;;;;;;;4.63;2.53;;;-3.00;99.90;;;;;;4144578;28;20814;-65
2022/12/08 03:24:21;;;;;;;3.83;2.20;;;-2.80;99.90;;;;;;4143979;28;20860;-66
2022/12/08 03:26:30;;;;;;;3.63;2.30;;;-2.80;99.90;;;;;;4144880;28;20425;-66
2022/12/08 03:28:31;;;;;;;3.60;2.20;;;-2.60;99.90;;;;;;4162430;28;20406;-69
2022/12/08 03:30:37;;;;;;;2.53;1.73;;;-2.50;99.90;;;;;;4162332;28;20530;-66
2022/12/08 03:33:02;;;;;;;4.27;2.27;;;-2.50;99.90;;;;;;4144363;28;20220;-66
2022/12/08 03:35:12;;;;;;;3.27;2.30;;;-2.40;99.90;;;;;;4145289;28;20499;-66
2022/12/08 03:37:13;;;;;;;3.13;2.07;;;-2.30;99.90;;;;;;4144979;28;20416;-66
2022/12/08 03:39:14;;;;;;;3.23;2.30;;;-2.30;99.90;;;;;;4144717;28;20545;-66
2022/12/08 03:41:17;;;;;;;4.10;2.27;;;-2.40;99.90;;;;;;4161681;28;20439;-66
2022/12/08 03:43:18;;;;;;;3.57;2.30;;;-2.30;99.90;;;;;;4159934;28;20221;-66
2022/12/08 03:45:18;;;;;;;3.83;2.33;;;-2.40;99.90;;;;;;4162089;28;20808;-66
2022/12/08 03:47:19;;;;;;;3.90;2.17;;;-2.30;99.90;;;;;;4159159;28;20181;-67
2022/12/08 03:49:20;;;;;;;2.50;1.90;;;-2.30;99.90;;;;;;4162121;28;20268;-66
2022/12/08 03:51:21;;;;;;;2.53;1.77;;;-2.40;99.90;;;;;;4144587;28;20192;-67
2022/12/08 03:53:21;;;;;;;3.40;1.57;;;-2.30;99.90;;;;;;4161579;28;20236;-67
2022/12/08 03:55:22;;;;;;;3.00;1.77;;;-2.30;99.90;;;;;;4161866;28;20889;-66
2022/12/08 03:57:23;;;;;;;3.87;1.90;;;-2.50;99.90;;;;;;4161764;28;20259;-67
2022/12/08 03:59:24;;;;;;;2.40;1.60;;;-2.60;99.90;;;;;;4162057;28;20180;-67
2022/12/08 04:01:26;;;;;;;3.10;1.73;;;-2.70;99.90;;;;;;4162072;28;20179;-66
2022/12/08 04:03:26;;;;;;;3.37;2.23;;;-2.70;99.90;;;;;;4161229;28;20200;-66
2022/12/08 04:05:27;;;;;;;4.80;2.70;;;-2.60;99.90;;;;;;4144404;28;20423;-67
2022/12/08 04:07:28;;;;;;;4.43;2.63;;;-2.40;99.90;;;;;;4162065;28;20215;-67
2022/12/08 04:09:30;;;;;;;6.57;2.43;;;-2.40;99.90;;;;;;4144348;28;20191;-67
2022/12/08 04:11:30;;;;;;;7.80;3.40;;;-2.40;99.90;;;;;;4144483;28;20426;-67
2022/12/08 04:13:33;;;;;;;6.23;3.03;;;-2.40;99.90;;;;;;4161227;28;20497;-67
2022/12/08 04:15:34;;;;;;;4.90;2.60;;;-2.30;99.90;;;;;;4161754;28;20173;-68
2022/12/08 04:17:34;;;;;;;4.20;2.63;;;-2.30;99.90;;;;;;4162157;28;20451;-66
2022/12/08 04:19:35;;;;;;;4.33;2.73;;;-2.20;99.90;;;;;;4162066;28;20649;-67
2022/12/08 04:21:36;;;;;;;5.40;2.53;;;-2.20;99.90;;;;;;4128324;28;20930;-67
2022/12/08 04:23:37;;;;;;;5.20;2.77;;;-2.10;99.90;;;;;;4161275;28;20913;-67
2022/12/08 04:25:38;;;;;;;6.00;2.57;;;-2.20;99.90;;;;;;4144076;28;20603;-67
2022/12/08 04:27:38;;;;;;;5.70;2.53;;;-2.20;99.90;;;;;;4144304;28;20417;-67
2022/12/08 04:29:39;;;;;;;3.37;2.07;;;-2.20;99.90;;;;;;4143980;28;20435;-67
2022/12/08 04:31:40;;;;;;;5.30;2.40;;;-2.20;99.90;;;;;;4161769;28;20180;-67
2022/12/08 04:33:41;;;;;;;3.60;2.30;;;-2.20;99.90;;;;;;4161442;28;20201;-66
2022/12/08 04:35:41;;;;;;;5.63;1.97;;;-2.10;99.90;;;;;;4163206;28;20180;-66
2022/12/08 04:37:43;;;;;;;4.40;2.60;;;-2.20;99.90;;;;;;4147101;28;20219;-66
2022/12/08 04:39:43;;;;;;;7.57;3.90;;;-2.20;99.90;;;;;;4148072;28;20174;-67
2022/12/08 04:41:44;;;;;;;6.30;3.20;;;-2.20;99.90;;;;;;4149495;28;20434;-67
2022/12/08 04:43:45;;;;;;;4.10;2.90;;;-2.30;99.90;;;;;;4164642;28;20207;-67
2022/12/08 04:45:45;;;;;;;3.47;2.57;;;-2.40;99.90;;;;;;4146936;28;20193;-67
2022/12/08 04:47:46;;;;;;;6.77;2.70;;;-2.40;99.90;;;;;;4164884;28;20699;-66
2022/12/08 04:49:47;;;;;;;3.47;2.30;;;-2.60;99.90;;;;;;4164520;28;20541;-67
2022/12/08 04:51:48;;;;;;;2.67;2.00;;;-2.70;99.90;;;;;;4164577;28;20262;-67
2022/12/08 04:53:48;;;;;;;4.03;2.20;;;-2.80;99.90;;;;;;4164181;28;20196;-67
2022/12/08 04:55:49;;;;;;;2.57;2.00;;;-2.80;99.90;;;;;;4146889;28;20194;-67
2022/12/08 04:57:50;;;;;;;3.00;2.00;;;-2.80;99.90;;;;;;4164342;28;20215;-67
2022/12/08 04:59:50;;;;;;;2.93;2.00;;;-2.90;99.90;;;;;;4164590;28;20203;-67
2022/12/08 05:01:51;;;;;;;4.27;2.27;;;-3.00;99.90;;;;;;4134560;28;20689;-67
2022/12/08 05:03:52;;;;;;;2.80;1.70;;;-3.00;99.90;;;;;;4147702;28;20212;-67
2022/12/08 05:05:52;;;;;;;3.90;2.13;;;-3.00;99.90;;;;;;4147955;28;20194;-67
2022/12/08 05:07:53;;;;;;;4.30;2.37;;;-3.10;99.90;;;;;;4147990;28;20188;-67
2022/12/08 05:09:54;;;;;;;3.97;1.83;;;-3.10;99.90;;;;;;4148004;28;20851;-67
2022/12/08 05:11:54;;;;;;;2.93;1.60;;;-3.20;99.90;;;;;;4147959;28;20686;-67
2022/12/08 05:13:55;;;;;;;3.17;2.00;;;-3.30;99.90;;;;;;4147157;28;20219;-67
2022/12/08 05:16:11;;;;;;;3.10;2.10;;;-3.30;99.90;;;;;;4130375;28;20186;-67
2022/12/08 05:18:12;;;;;;;2.40;1.73;;;-3.30;99.90;;;;;;4147994;28;20359;-67
2022/12/08 05:20:13;;;;;;;4.03;2.13;;;-3.40;99.90;;;;;;4130419;28;21205;-67
2022/12/08 05:22:13;;;;;;;2.10;1.67;;;-3.50;99.90;;;;;;4129652;28;20439;-67
2022/12/08 05:24:14;;;;;;;2.50;1.70;;;-3.40;99.90;;;;;;4130559;28;20179;-67
2022/12/08 05:26:15;;;;;;;3.47;1.50;;;-3.40;99.90;;;;;;4147937;28;20657;-67
2022/12/08 05:28:15;;;;;;;3.77;2.37;;;-3.50;99.90;;;;;;4147783;28;20212;-68
2022/12/08 05:30:16;;;;;;;2.30;1.43;;;-3.40;99.90;;;;;;4148854;28;20185;-67
2022/12/08 05:32:17;;;;;;;2.73;2.00;;;-3.50;99.90;;;;;;4162377;28;20238;-67
2022/12/08 05:34:17;;;;;;;3.63;2.07;;;-3.40;99.90;;;;;;4159587;28;20685;-67
2022/12/08 05:36:18;;;;;;;3.57;2.03;;;-3.40;99.90;;;;;;4159473;28;20210;-66
2022/12/08 05:38:19;;;;;;;2.70;1.90;;;-3.30;99.90;;;;;;4163473;28;20651;-66
2022/12/08 05:40:20;;;;;;;2.53;1.83;;;-3.50;99.90;;;;;;4163455;28;20483;-67
2022/12/08 05:42:21;;;;;;;2.97;2.10;;;-3.50;99.90;;;;;;4162850;28;20845;-67
2022/12/08 05:44:21;;;;;;;3.50;1.97;;;-3.50;99.90;;;;;;4163279;28;20189;-67
2022/12/08 05:46:27;;;;;;;2.90;1.80;;;-3.40;99.90;;;;;;4162933;28;20321;-67
2022/12/08 05:48:28;;;;;;;3.33;1.80;;;-3.50;99.90;;;;;;4162897;28;20227;-67
2022/12/08 05:50:28;;;;;;;2.50;1.50;;;-3.40;99.90;;;;;;4163192;28;20428;-67
2022/12/08 05:52:29;;;;;;;2.40;1.57;;;-3.40;99.90;;;;;;4144835;28;20218;-67
2022/12/08 05:54:30;;;;;;;2.97;2.17;;;-3.40;99.90;;;;;;4156960;28;20192;-67
2022/12/08 05:56:30;;;;;;;2.10;1.40;;;-3.50;99.90;;;;;;4129461;28;20723;-67
2022/12/08 05:58:31;;;;;;;2.30;1.67;;;-3.40;99.90;;;;;;4129711;28;20178;-67
2022/12/08 06:00:33;;;;;;;3.63;1.67;;;-3.30;99.90;;;;;;4130855;28;20179;-67
2022/12/08 06:02:34;;;;;;;2.30;1.60;;;-3.30;99.90;;;;;;4146436;28;20207;-67
2022/12/08 06:04:35;;;;;;;2.77;1.83;;;-3.20;99.90;;;;;;4146868;28;20511;-67
2022/12/08 06:06:37;;;;;;;3.70;1.77;;;-3.30;99.90;;;;;;4146636;28;20187;-67
2022/12/08 06:08:37;;;;;;;3.33;2.00;;;-3.20;99.90;;;;;;4146537;28;20176;-67
2022/12/08 06:12:53;;;;;;;2.77;1.83;;;-3.30;99.90;;;;;;4225646;27;20593;-66
2022/12/08 06:14:53;;;;;;;3.77;2.20;;;-3.30;99.90;;;;;;4208215;28;20470;-67
2022/12/08 06:16:54;;;;;;;2.83;1.87;;;-3.30;99.90;;;;;;4209128;28;20711;-66
2022/12/08 06:18:56;;;;;;;2.53;1.77;;;-3.30;99.90;;;;;;4209433;28;20664;-66
2022/12/08 06:21:09;;;;;;;2.53;1.90;;;-3.50;99.90;;;;;;4209563;28;20650;-66
2022/12/08 06:23:10;;;;;;;2.33;1.60;;;-3.60;99.90;;;;;;4190903;28;20444;-66
2022/12/08 06:25:10;;;;;;;2.00;1.57;;;-3.60;99.90;;;;;;4209304;28;20514;-66
2022/12/08 06:27:11;;;;;;;3.73;2.37;;;-3.60;99.90;;;;;;4209531;28;20179;-66
2022/12/08 06:29:12;;;;;;;2.73;1.60;;;-3.60;99.90;;;;;;4208317;28;20172;-66
2022/12/08 06:31:19;;;;;;;3.77;2.00;;;-3.70;99.90;;;;;;4208411;28;20202;-67
2022/12/08 06:33:20;;;;;;;5.03;2.30;;;-3.70;99.90;;;;;;4208965;28;20459;-67
2022/12/08 06:35:21;;;;;;;5.97;2.73;;;-3.70;99.90;;;;;;4209584;28;20792;-66
2022/12/08 06:37:21;;;;;;;4.53;2.53;;;-3.80;99.90;;;;;;4209639;28;20246;-67
2022/12/08 06:39:22;;;;;;;4.17;2.47;;;-3.70;99.90;;;;;;4209086;28;20175;-67
2022/12/08 06:41:23;;;;;;;3.40;2.60;;;-3.70;99.90;;;;;;4213137;28;20217;-67
2022/12/08 06:43:25;;;;;;;4.50;3.10;;;-3.60;99.90;;;;;;4211545;28;20199;-67
2022/12/08 06:45:26;;;;;;;4.00;2.63;;;-3.70;99.90;;;;;;4209275;28;20448;-67
2022/12/08 06:47:26;;;;;;;4.73;2.83;;;-3.60;99.90;;;;;;4209204;28;20480;-67
2022/12/08 06:49:27;;;;;;;6.30;3.73;;;-3.60;99.90;;;;;;4208883;28;20276;-66
2022/12/08 06:51:27;;;;;;;4.67;3.50;;;-3.60;99.90;;;;;;4208821;28;20212;-66
2022/12/08 06:53:29;;;;;;;6.70;3.63;;;-3.60;99.90;;;;;;4208051;28;20293;-67
2022/12/08 06:55:29;;;;;;;6.63;3.57;;;-3.60;99.90;;;;;;4208833;28;20239;-67
2022/12/08 06:57:30;;;;;;;4.83;3.17;;;-3.70;99.90;;;;;;4208860;28;20514;-67
2022/12/08 06:59:31;;;;;;;3.97;2.90;;;-3.60;99.90;;;;;;4208583;28;20212;-67
2022/12/08 07:01:31;;;;;;;4.33;2.40;;;-3.60;99.90;;;;;;4208528;28;20199;-67
2022/12/08 07:03:32;;;;;;;5.17;3.40;;;-3.50;99.90;;;;;;4208289;28;20206;-67
2022/12/08 07:05:34;;;;;;;5.43;3.17;;;-3.50;99.90;;;;;;4207248;28;20189;-67
2022/12/08 07:07:35;;;;;;;4.87;3.37;;;-3.40;99.90;;;;;;4208688;28;20189;-67
2022/12/08 07:09:35;;;;;;;5.47;3.17;;;-3.40;99.90;;;;;;4208406;28;20443;-67
2022/12/08 07:11:37;;;;;;;5.40;3.17;;;-3.40;99.90;;;;;;4190049;28;20854;-68
2022/12/08 07:13:38;;;;;;;4.80;3.27;;;-3.40;99.90;;;;;;4206447;28;20238;-67
2022/12/08 07:15:39;;;;;;;4.97;3.23;;;-3.40;99.90;;;;;;4206789;28;21019;-67
2022/12/08 07:17:39;;;;;;;7.97;4.70;;;-3.50;99.90;;;;;;4207102;28;20182;-67
2022/12/08 07:19:40;;;;;;;6.13;3.63;;;-3.60;99.90;;;;;;4223924;28;20276;-67
2022/12/08 07:21:41;;;;;;;7.37;4.27;;;-3.60;99.90;;;;;;4208448;28;20185;-67
2022/12/08 07:23:44;;;;;;;9.93;5.03;;;-3.60;99.90;;;;;;4198112;28;20678;-67
2022/12/08 07:25:45;;;;;;;6.40;3.90;;;-3.70;99.90;;;;;;4195176;28;20200;-67
2022/12/08 07:27:46;;;;;;;6.43;3.80;;;-3.70;99.90;;;;;;4197134;28;20928;-67
2022/12/08 07:29:47;;;;;;;5.17;2.73;;;-3.70;99.90;;;;;;4197045;28;20203;-67
2022/12/08 07:31:47;;;;;;;4.57;2.73;;;-3.80;99.90;;;;;;4196887;28;20462;-67
2022/12/08 07:33:49;;;;;;;4.80;2.73;;;-3.90;99.90;;;;;;4196309;28;20760;-67
2022/12/08 07:35:55;;;;;;;5.23;3.40;;;-3.80;99.90;;;;;;4195817;28;20227;-67
2022/12/08 07:37:56;;;;;;;12.70;7.73;;;-3.90;99.90;;;;;;4195465;28;20418;-67
2022/12/08 07:39:57;;;;;;;13.17;7.57;;;-3.90;99.90;;;;;;4195506;28;20546;-67
2022/12/08 07:41:58;;;;;;;7.23;4.70;;;-3.70;99.90;;;;;;4196269;28;20483;-67
2022/12/08 07:43:58;;;;;;;6.33;4.00;;;-3.80;99.90;;;;;;4196432;28;20197;-67
2022/12/08 07:45:59;;;;;;;8.13;4.00;;;-3.70;99.90;;;;;;4196708;28;20432;-67
2022/12/08 07:48:00;;;;;;;10.63;7.30;;;-3.70;99.90;;;;;;4195478;28;20194;-67
2022/12/08 07:50:00;;;;;;;6.57;3.57;;;-3.50;99.90;;;;;;4196364;28;20181;-67
2022/12/08 07:52:01;;;;;;;8.13;4.80;;;-3.50;99.90;;;;;;4195329;28;20722;-67
2022/12/08 07:54:02;;;;;;;6.30;3.80;;;-3.40;99.90;;;;;;4194617;28;20202;-67
2022/12/08 07:56:05;;;;;;;6.20;3.83;;;-3.40;99.90;;;;;;4196744;28;20174;-67
2022/12/08 07:58:06;;;;;;;6.57;3.73;;;-3.30;99.90;;;;;;4196580;28;20186;-67
2022/12/08 08:00:09;;;;;;;7.60;3.80;;;-3.10;99.90;;;;;;4196612;28;20459;-67
2022/12/08 08:02:18;;;;;;;6.40;3.10;;;-3.10;99.90;;;;;;4194679;28;20260;-67
2022/12/08 08:04:18;;;;;;;6.33;4.10;;;-3.10;99.90;;;;;;4178567;28;20998;-67
2022/12/08 08:06:19;;;;;;;7.77;4.13;;;-3.10;99.90;;;;;;4196473;28;20439;-68
2022/12/08 08:08:20;;;;;;;7.97;4.40;;;-2.90;99.90;;;;;;4195203;28;20185;-67
2022/12/08 08:10:20;;;;;;;6.57;3.33;;;-2.90;99.90;;;;;;4196395;28;20595;-67
2022/12/08 08:12:21;;;;;;;8.70;5.10;;;-2.90;99.90;;;;;;4195610;28;20590;-67
2022/12/08 08:14:22;;;;;;;8.00;4.50;;;-2.90;99.90;;;;;;4194977;28;20179;-67
2022/12/08 08:16:23;;;;;;;9.20;4.23;;;-2.80;99.90;;;;;;4196280;28;20188;-67
2022/12/08 08:18:23;;;;;;;10.83;6.53;;;-2.70;99.90;;;;;;4196217;28;20290;-67
2022/12/08 08:20:24;;;;;;;8.30;4.90;;;-2.60;99.90;;;;;;4195964;28;20194;-67
2022/12/08 08:22:25;;;;;;;6.70;4.07;;;-2.50;99.90;;;;;;4195287;28;20206;-68
2022/12/08 08:24:26;;;;;;;6.63;3.53;;;-2.30;99.90;;;;;;4194518;28;20245;-68
2022/12/08 08:26:27;;;;;;;7.87;4.40;;;-2.10;99.90;;;;;;4194684;28;20429;-67
2022/12/08 08:28:28;;;;;;;7.30;4.37;;;-1.90;99.90;;;;;;4194599;28;20182;-67
2022/12/08 08:30:29;;;;;;;6.30;4.27;;;-1.80;99.90;;;;;;4194999;28;20191;-68
2022/12/08 08:32:33;;;;;;;9.60;4.50;;;-1.50;99.90;;;;;;4195415;28;20476;-67
2022/12/08 08:34:34;;;;;;;8.77;4.47;;;-1.40;99.90;;;;;;4195504;28;20215;-67
2022/12/08 08:36:35;;;;;;;5.57;4.30;;;-1.40;99.90;;;;;;4195792;28;20793;-67
2022/12/08 08:38:38;;;;;;;11.33;4.80;;;-1.30;99.90;;;;;;4196151;28;20191;-67
2022/12/08 08:40:39;;;;;;;7.77;4.10;;;-1.10;99.90;;;;;;4194869;28;20230;-68
2022/12/08 08:42:40;;;;;;;9.60;4.83;;;-0.80;99.90;;;;;;4198591;28;20438;-68
2022/12/08 08:44:40;;;;;;;10.47;4.80;;;-0.50;99.90;;;;;;4196093;28;20203;-67
2022/12/08 08:46:41;;;;;;;7.93;4.47;;;-0.30;99.90;;;;;;4195920;28;20237;-67
2022/12/08 08:48:42;;;;;;;7.80;4.43;;;0.00;99.70;;;;;;4195907;28;20275;-67
2022/12/08 08:50:42;;;;;;;6.43;3.40;;;0.30;99.90;;;;;;4195981;28;20669;-67
2022/12/08 08:52:43;;;;;;;5.77;3.20;;;0.40;98.50;;;;;;4194953;28;20204;-67
2022/12/08 08:54:44;;;;;;;5.53;3.40;;;0.40;99.00;;;;;;4195816;28;20610;-68
2022/12/08 08:56:44;;;;;;;4.50;2.90;;;0.50;98.00;;;;;;4195656;28;20180;-67
2022/12/08 08:58:49;;;;;;;7.73;4.10;;;0.60;98.30;;;;;;4187522;28;20243;-67
2022/12/08 09:00:50;;;;;;;7.53;3.97;;;0.80;97.70;;;;;;4193560;28;20172;-68
2022/12/08 09:02:51;;;;;;;5.50;3.67;;;0.70;97.50;;;;;;4194255;28;20495;-68
2022/12/08 09:04:52;;;;;;;10.47;5.43;;;0.70;97.80;;;;;;4194232;28;20184;-69
2022/12/08 09:06:52;;;;;;;10.00;5.00;;;0.70;97.90;;;;;;4209626;28;20681;-69
2022/12/08 09:08:53;;;;;;;7.07;3.70;;;0.60;99.10;;;;;;4195644;28;20180;-68
2022/12/08 09:10:54;;;;;;;9.03;5.03;;;0.50;97.50;;;;;;4210548;28;20208;-68
2022/12/08 09:12:54;;;;;;;8.17;4.50;;;0.20;99.40;;;;;;4195235;28;20701;-68
2022/12/08 09:14:55;;;;;;;8.47;4.10;;;0.40;99.80;;;;;;4210088;28;20187;-68
2022/12/08 09:16:55;;;;;;;7.03;3.50;;;0.50;99.70;;;;;;4195980;28;20183;-69
2022/12/08 09:18:56;;;;;;;5.80;3.40;;;0.70;97.20;;;;;;4210191;28;20172;-69
2022/12/08 09:21:08;;;;;;;4.87;3.23;;;0.70;98.10;;;;;;4196101;28;20181;-70
2022/12/08 09:23:09;;;;;;;7.00;3.27;;;0.90;98.60;;;;;;4207589;28;20738;-69
2022/12/08 09:25:09;;;;;;;7.13;3.47;;;1.00;97.80;;;;;;4196375;28;20421;-68
2022/12/08 09:27:10;;;;;;;13.10;4.00;;;1.10;97.40;;;;;;4208363;28;20172;-70
2022/12/08 09:29:13;;;;;;;8.40;2.83;;;1.00;97.90;;;;;;4198114;28;20713;-68
2022/12/08 09:31:16;;;;;;;5.40;3.23;;;1.10;96.90;;;;;;4199718;28;20245;-67
2022/12/08 09:33:17;;;;;;;5.80;3.30;;;1.10;97.60;;;;;;4193085;28;20501;-68
2022/12/08 09:35:17;;;;;;;6.83;2.90;;;1.10;96.30;;;;;;4193881;28;20838;-68
2022/12/08 09:37:18;;;;;;;2.90;2.10;;;1.10;97.90;;;;;;4195260;28;20184;-69
2022/12/08 09:39:18;;;;;;;2.47;1.90;;;1.00;97.70;;;;;;4195392;28;20175;-69
2022/12/08 09:41:34;;;;;;;2.80;1.87;;;0.90;98.40;;;;;;4193782;28;20187;-69
2022/12/08 09:44:31;;;;;;;2.33;1.80;;;0.90;97.80;;;;;;4176592;28;20200;-69
2022/12/08 09:46:34;;;;;;;2.60;2.00;;;0.70;98.00;;;;;;4193619;28;20399;-69
2022/12/08 09:48:40;;;;;;;2.00;1.70;;;0.70;97.30;;;;;;4178442;28;20449;-69
2022/12/08 09:50:56;;;;;;;2.67;1.80;;;0.40;98.10;;;;;;4193700;28;20496;-69
2022/12/08 09:53:19;;;;;;;2.67;1.63;;;0.50;98.80;;;;;;4177713;28;20490;-69
2022/12/08 09:55:36;;;;;;;3.17;1.93;;;0.60;98.50;;;;;;4177086;28;20993;-69
2022/12/08 09:57:36;;;;;;;3.70;1.53;;;0.60;97.70;;;;;;4178315;28;20905;-69
2022/12/08 09:59:37;;;;;;;3.53;2.07;;;0.60;98.10;;;;;;4178430;28;20418;-69
2022/12/08 10:01:42;;;;;;;2.60;1.47;;;0.70;97.20;;;;;;4193404;28;20202;-69
2022/12/08 10:03:43;;;;;;;2.33;1.37;;;0.70;98.10;;;;;;4177446;28;20234;-69
2022/12/08 10:05:53;;;;;;;3.60;1.73;;;0.60;97.60;;;;;;4178246;28;20426;-69
2022/12/08 10:08:12;;;;;;;1.97;1.53;;;0.60;97.60;;;;;;4178335;28;20238;-69
2022/12/08 10:10:35;;;;;;;2.43;1.60;;;0.80;98.40;;;;;;4178183;28;20422;-69
2022/12/08 10:13:03;;;;;;;4.97;1.83;;;1.20;97.40;;;;;;4177357;28;20483;-69
2022/12/08 10:15:40;;;;;;;2.03;1.50;;;1.20;96.80;;;;;;4176838;28;20453;-69
2022/12/08 10:17:48;;;;;;;2.83;1.40;;;1.20;97.60;;;;;;4176871;28;20426;-69
2022/12/08 10:19:56;;;;;;;2.13;1.40;;;1.20;97.40;;;;;;4176872;28;20562;-69
2022/12/08 10:21:57;;;;;;;3.47;1.80;;;1.10;95.90;;;;;;4160376;28;20453;-69
2022/12/08 10:24:05;;;;;;;3.00;1.70;;;1.20;96.50;;;;;;4176359;28;20499;-69
2022/12/08 10:26:13;;;;;;;3.43;1.30;;;1.20;94.30;;;;;;4161957;28;20192;-69
2022/12/08 10:28:14;;;;;;;2.20;1.50;;;1.40;94.50;;;;;;4193524;28;20428;-69
2022/12/08 10:30:18;;;;;;;2.43;1.40;;;1.50;93.30;;;;;;4176702;28;20414;-69
2022/12/08 10:32:23;;;;;;;3.73;1.50;;;1.20;92.40;;;;;;4177408;28;20216;-68
2022/12/08 10:34:24;;;;;;;2.50;2.00;;;1.00;93.50;;;;;;4193477;28;20430;-69
2022/12/08 10:36:51;;;;;;;2.33;1.70;;;0.90;95.10;;;;;;4177937;28;20512;-69
2022/12/08 10:38:51;;;;;;;3.80;1.57;;;1.10;93.00;;;;;;4160142;28;20435;-69
2022/12/08 10:41:17;;;;;;;2.50;1.63;;;0.90;94.90;;;;;;4178202;28;20434;-69
2022/12/08 10:43:21;;;;;;;3.70;2.10;;;1.10;93.70;;;;;;4180336;28;20216;-69
2022/12/08 10:45:40;;;;;;;4.37;2.97;;;1.40;94.10;;;;;;4180030;28;20416;-69
2022/12/08 10:47:42;;;;;;;3.67;1.80;;;1.50;94.10;;;;;;4193193;28;20433;-69
2022/12/08 10:49:42;;;;;;;2.10;1.50;;;1.40;94.30;;;;;;4177373;28;20431;-69
2022/12/08 10:51:43;;;;;;;1.80;1.40;;;1.40;93.80;;;;;;4194304;28;20468;-69
2022/12/08 10:53:45;;;;;;;1.70;1.40;;;1.20;93.30;;;;;;4178525;28;20284;-69
2022/12/08 10:56:04;;;;;;;1.57;1.40;;;1.30;94.40;;;;;;4194193;28;20180;-69
2022/12/08 10:58:27;;;;;;;2.53;1.60;;;1.40;94.60;;;;;;4194177;28;20418;-69